Details for Ryanair at LICA




Go Back


Latest METAR
Local Time

LICA 232350Z 25015KT 5000 -RA FEW010 BKN030 10/08 Q1001

24/02/2018, 01:09:15

Description
Results
Ryanair Logo
Number of Pilots based at LICA
0 Pilots Based here
Number of Ryanair Flights Departed from LICA
0 Flights Departed
Number of Ryanair Flights Arrived at LICA
0 Flights Arrived
Number of Ryanair Schedules Departing from LICA
22 Schedules
Number of Ryanair Schedules Arriving at LICA
22 Schedules
Number of Ryanair Schedules Departing from LICA availible today
8 Schedules Today
Number of Ryanair Schedules Arriving at LICA availible today
8 Schedules Today
Average Landing Rate at LICA
-233 fpm
Ryanair Average Landing Rate at LICA
0 fpm
Total Fuel Purchased at LICA by Ryanair
0.00 kgs / 0.00 lbs

Pilots Based at LICA


Pilot ID
Pilot Name
Pilot Rank
No. of Flights
No. of Flying Hours
There are no pilots assigned to this hub!   Will you be the first?
Content